createdAt,value
2022-08-23T00:01:26.290Z,24.00
2022-08-23T00:03:57.708Z,24.00
2022-08-23T00:06:25.090Z,23.90
2022-08-23T00:08:52.498Z,23.90
2022-08-23T00:11:36.064Z,23.90
2022-08-23T00:14:09.482Z,23.80
2022-08-23T00:16:36.219Z,23.80
2022-08-23T00:19:04.322Z,23.70
2022-08-23T00:21:31.093Z,23.70
2022-08-23T00:23:57.834Z,23.60
2022-08-23T00:26:26.120Z,23.60
2022-08-23T00:28:53.066Z,23.60
2022-08-23T00:31:19.879Z,23.50
2022-08-23T00:33:46.657Z,23.50
2022-08-23T00:36:14.457Z,23.40
2022-08-23T00:38:42.089Z,23.40
2022-08-23T00:41:09.145Z,23.30
2022-08-23T00:43:57.324Z,23.20
2022-08-23T00:46:52.120Z,23.20
2022-08-23T00:49:19.723Z,23.20
2022-08-23T00:51:53.577Z,23.20
2022-08-23T00:54:22.155Z,23.10
2022-08-23T00:56:49.496Z,23.10
2022-08-23T00:59:16.253Z,23.10
2022-08-23T01:01:44.183Z,23.10
2022-08-23T01:04:12.301Z,23.10
2022-08-23T01:06:44.778Z,23.10
2022-08-23T01:09:13.726Z,23.00
2022-08-23T01:11:49.603Z,22.90
2022-08-23T01:14:25.854Z,23.00
2022-08-23T01:16:57.702Z,23.00
2022-08-23T01:19:31.910Z,23.00
2022-08-23T01:22:09.396Z,22.90
2022-08-23T01:25:06.116Z,22.80
2022-08-23T01:27:25.171Z,22.70
2022-08-23T01:29:51.962Z,22.60
2022-08-23T01:32:18.727Z,22.60
2022-08-23T01:34:51.524Z,22.50
2022-08-23T01:37:19.484Z,22.50
2022-08-23T01:39:46.256Z,22.50
2022-08-23T01:42:13.039Z,22.50
2022-08-23T01:44:39.745Z,22.50
2022-08-23T01:47:07.835Z,22.50
2022-08-23T01:49:35.223Z,22.50
2022-08-23T01:52:02.073Z,22.50
2022-08-23T01:54:29.459Z,22.50
2022-08-23T01:56:56.624Z,22.40
2022-08-23T01:59:24.253Z,22.40
2022-08-23T02:01:51.366Z,22.40
2022-08-23T02:04:18.472Z,22.40
2022-08-23T02:06:45.386Z,22.20
2022-08-23T02:09:17.513Z,22.20
2022-08-23T02:11:45.814Z,22.10
2022-08-23T02:14:18.446Z,22.10
2022-08-23T02:17:03.243Z,22.10
2022-08-23T02:19:34.944Z,22.00
2022-08-23T02:22:02.201Z,22.00
2022-08-23T02:24:31.124Z,21.90
2022-08-23T02:26:59.843Z,21.90
2022-08-23T02:29:29.943Z,21.80
2022-08-23T02:31:58.767Z,21.80
2022-08-23T02:37:09.402Z,21.80
2022-08-23T02:39:38.743Z,21.80
2022-08-23T02:42:06.761Z,21.90
2022-08-23T02:44:34.923Z,21.90
2022-08-23T02:47:02.437Z,21.80
2022-08-23T02:49:29.708Z,21.90
2022-08-23T02:51:57.330Z,21.90
2022-08-23T02:54:24.354Z,21.80
2022-08-23T02:56:53.006Z,21.80
2022-08-23T02:59:20.012Z,21.80
2022-08-23T03:01:46.945Z,21.70
2022-08-23T03:04:13.905Z,21.80
2022-08-23T03:06:40.941Z,21.80
2022-08-23T03:09:08.196Z,21.70
2022-08-23T03:11:35.014Z,21.70
2022-08-23T03:14:02.264Z,21.70
2022-08-23T03:16:29.163Z,21.70
2022-08-23T03:18:56.033Z,21.60
2022-08-23T03:21:22.844Z,21.60
2022-08-23T03:23:49.997Z,21.50
2022-08-23T03:26:17.192Z,21.50
2022-08-23T03:28:44.782Z,21.50
2022-08-23T03:31:12.432Z,21.40
2022-08-23T03:33:39.747Z,21.50
2022-08-23T03:36:07.934Z,21.40
2022-08-23T03:38:35.135Z,21.40
2022-08-23T03:41:01.917Z,21.40
2022-08-23T03:43:28.928Z,21.40
2022-08-23T03:45:55.689Z,21.30
2022-08-23T03:48:22.652Z,21.30
2022-08-23T03:50:49.357Z,21.30
2022-08-23T03:53:16.703Z,21.20
2022-08-23T03:55:44.265Z,21.20
2022-08-23T03:58:11.514Z,21.20
2022-08-23T04:00:38.612Z,21.20
2022-08-23T04:03:05.390Z,21.20
2022-08-23T04:05:32.251Z,21.20
2022-08-23T04:07:59.232Z,21.20
2022-08-23T04:10:26.122Z,21.20
2022-08-23T04:12:55.035Z,21.20
2022-08-23T04:15:22.675Z,21.10
2022-08-23T04:17:49.385Z,21.20
2022-08-23T04:20:16.517Z,21.10
2022-08-23T04:22:45.955Z,21.10
2022-08-23T04:25:33.072Z,21.00
2022-08-23T04:28:03.937Z,21.00
2022-08-23T04:30:32.314Z,20.90
2022-08-23T04:33:01.781Z,20.90
2022-08-23T04:35:28.862Z,20.90
2022-08-23T04:37:55.633Z,20.90
2022-08-23T04:40:41.151Z,20.90
2022-08-23T04:43:08.731Z,20.90
2022-08-23T04:45:39.152Z,20.90
2022-08-23T04:48:06.235Z,20.90
2022-08-23T04:50:38.328Z,20.90
2022-08-23T04:53:05.269Z,20.80
2022-08-23T04:55:31.978Z,20.80
2022-08-23T04:58:02.372Z,20.80
2022-08-23T05:00:29.373Z,20.80
2022-08-23T05:02:56.490Z,20.80
2022-08-23T05:05:23.224Z,20.60
2022-08-23T05:07:49.950Z,20.60
2022-08-23T05:10:17.082Z,20.50
2022-08-23T05:12:43.735Z,20.40
2022-08-23T05:15:10.818Z,20.30
2022-08-23T05:17:39.547Z,20.40
2022-08-23T05:20:08.284Z,20.40
2022-08-23T05:22:36.011Z,20.40
2022-08-23T05:25:02.885Z,20.40
2022-08-23T05:27:30.344Z,20.40
2022-08-23T05:29:57.019Z,20.40
2022-08-23T05:32:24.033Z,20.40
2022-08-23T05:34:50.692Z,20.40
2022-08-23T05:37:17.862Z,20.40
2022-08-23T05:39:44.578Z,20.40
2022-08-23T05:42:14.303Z,20.40
2022-08-23T05:44:41.130Z,20.50
2022-08-23T05:47:11.428Z,20.60
2022-08-23T05:49:38.650Z,20.70
2022-08-23T05:52:06.572Z,20.80
2022-08-23T05:54:33.443Z,20.80
2022-08-23T05:57:00.200Z,21.00
2022-08-23T05:59:26.896Z,21.00
2022-08-23T06:01:53.691Z,21.10
2022-08-23T06:04:20.571Z,21.10
2022-08-23T06:06:48.394Z,21.20
2022-08-23T06:09:17.492Z,21.30
2022-08-23T06:11:45.474Z,21.30
2022-08-23T06:14:12.344Z,21.40
2022-08-23T06:16:50.159Z,21.40
2022-08-23T06:19:19.572Z,21.60
2022-08-23T06:21:46.417Z,21.60
2022-08-23T06:24:13.423Z,21.70
2022-08-23T06:26:41.485Z,21.90
2022-08-23T06:29:12.604Z,22.10
2022-08-23T06:31:47.194Z,22.20
2022-08-23T06:34:33.859Z,22.40
2022-08-23T06:37:01.906Z,22.50
2022-08-23T06:39:29.782Z,22.60
2022-08-23T06:42:01.002Z,22.80
2022-08-23T06:44:28.512Z,23.00
2022-08-23T06:46:56.877Z,23.20
2022-08-23T06:49:24.761Z,23.40
2022-08-23T06:51:52.885Z,23.40
2022-08-23T06:54:21.812Z,23.60
2022-08-23T06:56:50.488Z,23.70
2022-08-23T06:59:17.957Z,23.80
2022-08-23T07:01:47.788Z,23.90
2022-08-23T07:04:16.273Z,24.10
2022-08-23T07:06:43.470Z,24.40
2022-08-23T07:09:10.236Z,24.40
2022-08-23T07:11:37.006Z,24.50
2022-08-23T07:14:06.190Z,24.60
2022-08-23T07:16:34.185Z,24.80
2022-08-23T07:19:01.085Z,24.90
2022-08-23T07:21:27.839Z,25.00
2022-08-23T07:23:55.380Z,25.10
2022-08-23T07:26:23.267Z,25.30
2022-08-23T07:28:50.246Z,25.50
2022-08-23T07:31:27.373Z,25.70
2022-08-23T07:33:54.961Z,25.90
2022-08-23T07:36:28.033Z,26.10
2022-08-23T07:38:55.769Z,26.30
2022-08-23T07:43:50.947Z,26.50
2022-08-23T07:46:18.089Z,26.60
2022-08-23T07:48:53.863Z,26.80
2022-08-23T07:51:20.987Z,26.90
2022-08-23T07:53:48.078Z,27.00
2022-08-23T07:56:16.141Z,27.20
2022-08-23T08:01:14.744Z,27.50
2022-08-23T08:03:42.215Z,27.60
2022-08-23T08:06:12.559Z,27.80
2022-08-23T08:08:41.113Z,28.00
2022-08-23T08:11:08.911Z,28.20
2022-08-23T08:13:38.162Z,28.40
2022-08-23T08:16:05.042Z,28.60
2022-08-23T08:18:32.340Z,28.80
2022-08-23T08:23:29.288Z,29.10
2022-08-23T08:26:03.336Z,29.20
2022-08-23T08:28:30.102Z,29.30
2022-08-23T08:30:57.683Z,29.30
2022-08-23T08:33:25.272Z,29.50
2022-08-23T08:36:00.416Z,29.60
2022-08-23T08:38:30.716Z,29.80
2022-08-23T08:41:17.795Z,29.90
2022-08-23T08:43:54.699Z,30.00
2022-08-23T08:46:21.485Z,30.20
2022-08-23T08:48:50.362Z,30.30
2022-08-23T08:51:27.517Z,30.40
2022-08-23T08:56:25.256Z,30.70
2022-08-23T08:59:01.354Z,30.80
2022-08-23T09:01:29.514Z,30.90
2022-08-23T09:03:57.504Z,31.00
2022-08-23T09:06:33.395Z,31.00
2022-08-23T09:09:18.983Z,31.10
2022-08-23T09:11:52.689Z,31.30
2022-08-23T09:14:26.661Z,31.40
2022-08-23T09:17:05.511Z,31.50
2022-08-23T09:19:35.083Z,31.60
2022-08-23T09:24:29.831Z,31.90
2022-08-23T09:26:57.008Z,31.90
2022-08-23T09:29:25.524Z,32.10
2022-08-23T09:31:58.541Z,32.10
2022-08-23T09:34:28.676Z,32.10
2022-08-23T09:37:05.779Z,32.10
2022-08-23T09:39:33.366Z,32.10
2022-08-23T09:42:00.181Z,32.20
2022-08-23T09:44:35.825Z,32.30
2022-08-23T09:47:20.780Z,32.20
2022-08-23T09:49:48.512Z,32.20
2022-08-23T09:52:22.136Z,32.20
2022-08-23T09:55:03.186Z,32.30
2022-08-23T09:57:31.046Z,32.20
2022-08-23T10:00:02.380Z,32.30
2022-08-23T10:04:59.342Z,32.50
2022-08-23T10:07:29.035Z,32.50
2022-08-23T10:10:12.815Z,32.60
2022-08-23T10:12:39.549Z,32.60
2022-08-23T10:15:06.962Z,32.70
2022-08-23T10:17:39.783Z,32.70
2022-08-23T10:20:06.693Z,32.70
2022-08-23T10:22:42.604Z,32.70
2022-08-23T10:25:23.469Z,32.70
2022-08-23T10:28:27.945Z,32.70
2022-08-23T10:31:01.015Z,32.70
2022-08-23T10:33:41.037Z,32.70
2022-08-23T10:36:19.941Z,32.70
2022-08-23T10:38:52.285Z,32.60
2022-08-23T10:41:25.016Z,32.70
2022-08-23T10:44:03.852Z,32.70
2022-08-23T10:46:31.409Z,32.80
2022-08-23T10:49:00.101Z,32.80
2022-08-23T10:51:37.752Z,32.70
2022-08-23T10:54:09.458Z,32.80
2022-08-23T10:56:36.500Z,32.70
2022-08-23T10:59:03.166Z,32.70
2022-08-23T11:01:29.878Z,32.70
2022-08-23T11:04:01.667Z,32.50
2022-08-23T11:06:37.308Z,32.40
2022-08-23T11:09:07.052Z,32.30
2022-08-23T11:11:52.591Z,32.40
2022-08-23T11:14:34.324Z,32.30
2022-08-23T11:17:02.846Z,32.30
2022-08-23T11:19:48.488Z,32.30
2022-08-23T11:22:17.204Z,32.40
2022-08-23T11:24:51.487Z,32.50
2022-08-23T11:27:26.046Z,32.60
2022-08-23T11:29:52.749Z,32.60
2022-08-23T11:32:29.852Z,32.60
2022-08-23T11:35:08.826Z,32.60
2022-08-23T11:37:49.418Z,32.50
2022-08-23T11:40:36.065Z,32.50
2022-08-23T11:43:19.799Z,32.50
2022-08-23T11:45:47.053Z,32.40
2022-08-23T11:48:32.518Z,32.50
2022-08-23T11:51:15.963Z,32.40
2022-08-23T11:53:54.892Z,32.40
2022-08-23T11:56:33.765Z,32.40
2022-08-23T11:59:19.821Z,32.40
2022-08-23T12:01:47.272Z,32.40
2022-08-23T12:04:34.421Z,32.50
2022-08-23T12:07:08.025Z,32.50
2022-08-23T12:09:36.509Z,32.50
2022-08-23T12:12:06.724Z,32.40
2022-08-23T12:14:42.592Z,32.40
2022-08-23T12:17:12.269Z,32.50
2022-08-23T12:19:42.058Z,32.50
2022-08-23T12:22:21.894Z,32.40
2022-08-23T12:24:53.598Z,32.30
2022-08-23T12:27:25.643Z,32.20
2022-08-23T12:29:55.059Z,32.20
2022-08-23T12:32:40.698Z,32.20
2022-08-23T12:35:25.605Z,32.10
2022-08-23T12:37:55.309Z,32.20
2022-08-23T12:40:25.942Z,32.20
2022-08-23T12:43:02.297Z,32.30
2022-08-23T12:45:37.429Z,32.30
2022-08-23T12:48:06.497Z,32.30
2022-08-23T12:50:35.201Z,32.30
2022-08-23T12:53:12.524Z,32.30
2022-08-23T12:55:47.975Z,32.40
2022-08-23T12:58:15.453Z,32.30
2022-08-23T13:00:50.505Z,32.20
2022-08-23T13:03:23.770Z,32.20
2022-08-23T13:05:55.366Z,32.30
2022-08-23T13:08:33.560Z,32.30
2022-08-23T13:11:07.446Z,32.30
2022-08-23T13:13:37.195Z,32.20
2022-08-23T13:16:27.154Z,32.10
2022-08-23T13:18:56.288Z,32.20
2022-08-23T13:21:23.026Z,32.20
2022-08-23T13:23:50.374Z,32.30
2022-08-23T13:26:43.408Z,32.40
2022-08-23T13:29:21.044Z,32.30
2022-08-23T13:32:06.784Z,32.30
2022-08-23T13:34:33.592Z,32.40
2022-08-23T13:37:17.952Z,32.30
2022-08-23T13:39:46.227Z,32.30
2022-08-23T13:42:12.957Z,32.30
2022-08-23T13:44:40.653Z,32.30
2022-08-23T13:47:19.192Z,32.20
2022-08-23T13:49:45.916Z,32.20
2022-08-23T13:52:45.853Z,32.30
2022-08-23T13:54:59.537Z,32.30
2022-08-23T13:57:29.987Z,32.20
2022-08-23T13:59:59.038Z,32.20
2022-08-23T14:02:26.234Z,32.20
2022-08-23T14:04:52.966Z,32.20
2022-08-23T14:07:19.773Z,32.20
2022-08-23T14:09:46.541Z,32.10
2022-08-23T14:12:15.383Z,32.10
2022-08-23T14:14:42.367Z,32.10
2022-08-23T14:17:11.370Z,32.10
2022-08-23T14:20:32.275Z,32.10
2022-08-23T14:22:26.872Z,32.10
2022-08-23T14:24:53.600Z,32.10
2022-08-23T14:27:20.444Z,32.10
2022-08-23T14:29:47.140Z,32.10
2022-08-23T14:32:13.837Z,32.10
2022-08-23T14:34:40.707Z,32.20
2022-08-23T14:39:54.242Z,32.20
2022-08-23T14:42:22.054Z,32.20
2022-08-23T14:44:49.392Z,32.20
2022-08-23T14:47:16.730Z,32.20
2022-08-23T14:49:43.439Z,32.20
2022-08-23T14:52:11.238Z,32.10
2022-08-23T14:54:37.913Z,32.00
2022-08-23T14:57:05.060Z,32.00
2022-08-23T14:59:31.977Z,32.00
2022-08-23T15:01:59.010Z,32.00
2022-08-23T15:04:34.572Z,32.00
2022-08-23T15:07:18.924Z,32.00
2022-08-23T15:09:47.514Z,31.90
2022-08-23T15:15:01.128Z,31.80
2022-08-23T15:17:31.542Z,31.80
2022-08-23T15:19:58.904Z,31.80
2022-08-23T15:22:26.071Z,31.80
2022-08-23T15:24:52.854Z,31.70
2022-08-23T15:27:19.868Z,31.80
2022-08-23T15:29:46.567Z,31.80
2022-08-23T15:32:13.251Z,31.80
2022-08-23T15:34:45.605Z,31.80
2022-08-23T15:37:13.595Z,31.80
2022-08-23T15:39:41.010Z,31.80
2022-08-23T15:42:07.875Z,31.80
2022-08-23T15:44:34.571Z,31.80
2022-08-23T15:47:02.231Z,31.80
2022-08-23T15:49:32.860Z,31.80
2022-08-23T15:52:02.267Z,31.80
2022-08-23T15:54:29.015Z,31.90
2022-08-23T15:56:55.899Z,31.90
2022-08-23T15:59:22.643Z,31.80
2022-08-23T16:01:49.404Z,31.90
2022-08-23T16:04:16.195Z,31.90
2022-08-23T16:06:45.172Z,31.80
2022-08-23T16:09:16.920Z,31.80
2022-08-23T16:11:43.717Z,31.80
2022-08-23T16:14:10.441Z,31.80
2022-08-23T16:16:38.371Z,31.80
2022-08-23T16:19:05.144Z,31.70
2022-08-23T16:21:32.522Z,31.80
2022-08-23T16:23:59.215Z,31.70
2022-08-23T16:26:32.353Z,31.70
2022-08-23T16:29:02.949Z,31.70
2022-08-23T16:31:38.347Z,31.70
2022-08-23T16:34:07.991Z,31.70
2022-08-23T16:36:34.659Z,31.70
2022-08-23T16:39:01.383Z,31.70
2022-08-23T16:41:28.129Z,31.70
2022-08-23T16:43:54.824Z,31.70
2022-08-23T16:46:22.002Z,31.70
2022-08-23T16:48:48.738Z,31.70
2022-08-23T16:51:15.456Z,31.70
2022-08-23T16:53:42.149Z,31.70
2022-08-23T16:56:11.528Z,31.70
2022-08-23T16:58:38.189Z,31.60
2022-08-23T17:01:05.008Z,31.60
2022-08-23T17:03:32.427Z,31.60
2022-08-23T17:05:59.127Z,31.50
2022-08-23T17:08:26.292Z,31.50
2022-08-23T17:10:53.402Z,31.50
2022-08-23T17:13:20.152Z,31.50
2022-08-23T17:15:46.849Z,31.50
2022-08-23T17:18:13.510Z,31.50
2022-08-23T17:20:40.453Z,31.40
2022-08-23T17:23:07.671Z,31.40
2022-08-23T17:25:35.503Z,31.40
2022-08-23T17:28:02.764Z,31.40
2022-08-23T17:30:29.579Z,31.40
2022-08-23T17:32:56.602Z,31.40
2022-08-23T17:35:27.739Z,31.40
2022-08-23T17:37:55.629Z,31.40
2022-08-23T17:40:28.796Z,31.30
2022-08-23T17:42:56.487Z,31.30
2022-08-23T17:45:23.316Z,31.30
2022-08-23T17:47:49.988Z,31.20
2022-08-23T17:50:17.063Z,31.20
2022-08-23T17:52:45.107Z,31.20
2022-08-23T17:55:12.612Z,31.20
2022-08-23T17:57:39.429Z,31.10
2022-08-23T18:00:08.025Z,31.10
2022-08-23T18:02:34.781Z,31.10
2022-08-23T18:05:01.655Z,31.00
2022-08-23T18:07:28.835Z,31.00
2022-08-23T18:09:55.623Z,31.00
2022-08-23T18:12:23.197Z,30.90
2022-08-23T18:14:50.423Z,31.00
2022-08-23T18:17:17.234Z,30.90
2022-08-23T18:19:45.286Z,30.90
2022-08-23T18:22:11.975Z,30.80
2022-08-23T18:24:38.720Z,30.80
2022-08-23T18:27:23.938Z,30.80
2022-08-23T18:29:51.587Z,30.80
2022-08-23T18:32:18.894Z,30.70
2022-08-23T18:34:45.636Z,30.70
2022-08-23T18:37:13.047Z,30.70
2022-08-23T18:39:39.766Z,30.70
2022-08-23T18:42:06.749Z,30.60
2022-08-23T18:44:33.654Z,30.60
2022-08-23T18:47:01.832Z,30.60
2022-08-23T18:49:28.939Z,30.50
2022-08-23T18:51:56.612Z,30.50
2022-08-23T18:54:23.683Z,30.40
2022-08-23T18:56:50.395Z,30.50
2022-08-23T18:59:17.512Z,30.40
2022-08-23T19:01:45.428Z,30.40
2022-08-23T19:04:13.023Z,30.40
2022-08-23T19:06:40.552Z,30.30
2022-08-23T19:09:07.846Z,30.30
2022-08-23T19:11:38.463Z,30.30
2022-08-23T19:14:05.946Z,30.20
2022-08-23T19:16:33.032Z,30.20
2022-08-23T19:19:00.775Z,30.20
2022-08-23T19:21:27.590Z,30.10
2022-08-23T19:23:55.549Z,30.10
2022-08-23T19:26:25.761Z,30.10
2022-08-23T19:28:52.561Z,30.00
2022-08-23T19:31:19.269Z,29.90
2022-08-23T19:33:46.026Z,29.90
2022-08-23T19:36:29.351Z,29.80
2022-08-23T19:38:59.451Z,29.70
2022-08-23T19:41:26.158Z,29.70
2022-08-23T19:43:52.831Z,29.60
2022-08-23T19:46:19.969Z,29.60
2022-08-23T19:48:47.424Z,29.50
2022-08-23T19:51:15.074Z,29.40
2022-08-23T19:53:42.089Z,29.40
2022-08-23T19:56:09.347Z,29.30
2022-08-23T19:58:38.146Z,29.20
2022-08-23T20:01:04.883Z,29.20
2022-08-23T20:03:31.582Z,29.10
2022-08-23T20:05:58.388Z,29.10
2022-08-23T20:08:26.020Z,29.00
2022-08-23T20:10:52.772Z,28.90
2022-08-23T20:13:21.831Z,28.90
2022-08-23T20:15:51.164Z,28.80
2022-08-23T20:18:20.042Z,28.80
2022-08-23T20:20:46.761Z,28.70
2022-08-23T20:23:32.003Z,28.70
2022-08-23T20:25:58.724Z,28.70
2022-08-23T20:28:26.549Z,28.60
2022-08-23T20:30:53.299Z,28.50
2022-08-23T20:33:19.947Z,28.50
2022-08-23T20:35:46.912Z,28.40
2022-08-23T20:38:21.682Z,28.30
2022-08-23T20:41:00.417Z,28.20
2022-08-23T20:43:30.080Z,28.10
2022-08-23T20:45:56.775Z,28.10
2022-08-23T20:48:23.430Z,28.10
2022-08-23T20:50:50.127Z,28.00
2022-08-23T20:53:16.951Z,28.00
2022-08-23T20:55:43.749Z,27.90
2022-08-23T20:58:10.474Z,27.90
2022-08-23T21:00:37.230Z,27.80
2022-08-23T21:03:04.065Z,27.80
2022-08-23T21:05:30.807Z,27.70
2022-08-23T21:07:57.520Z,27.70
2022-08-23T21:10:24.191Z,27.70
2022-08-23T21:12:50.880Z,27.60
2022-08-23T21:15:17.648Z,27.60
2022-08-23T21:17:47.663Z,27.50
2022-08-23T21:20:14.495Z,27.50
2022-08-23T21:22:41.327Z,27.50
2022-08-23T21:25:08.273Z,27.40
2022-08-23T21:27:35.023Z,27.30
2022-08-23T21:30:02.110Z,27.30
2022-08-23T21:32:29.266Z,27.30
2022-08-23T21:34:57.966Z,27.20
2022-08-23T21:37:25.054Z,27.20
2022-08-23T21:39:52.271Z,27.20
2022-08-23T21:42:23.504Z,27.20
2022-08-23T21:44:50.512Z,27.10
2022-08-23T21:47:17.223Z,27.10
2022-08-23T21:49:43.927Z,27.10
2022-08-23T21:52:10.626Z,27.10
2022-08-23T21:54:42.850Z,27.00
2022-08-23T21:57:10.568Z,27.00
2022-08-23T21:59:37.284Z,26.90
2022-08-23T22:02:04.145Z,26.90
2022-08-23T22:04:30.928Z,26.80
2022-08-23T22:07:00.116Z,26.80
2022-08-23T22:09:31.240Z,26.80
2022-08-23T22:12:00.469Z,26.70
2022-08-23T22:14:31.323Z,26.70
2022-08-23T22:16:58.987Z,26.60
2022-08-23T22:19:26.064Z,26.60
2022-08-23T22:21:53.190Z,26.60
2022-08-23T22:24:25.250Z,26.50
2022-08-23T22:26:53.206Z,26.50
2022-08-23T22:29:19.928Z,26.50
2022-08-23T22:31:47.904Z,26.40
2022-08-23T22:34:14.586Z,26.40
2022-08-23T22:36:41.970Z,26.30
2022-08-23T22:39:08.679Z,26.30
2022-08-23T22:41:35.339Z,26.30
2022-08-23T22:44:02.680Z,26.30
2022-08-23T22:46:30.456Z,26.20
2022-08-23T22:48:57.358Z,26.20
2022-08-23T22:51:25.688Z,26.10
2022-08-23T22:53:53.942Z,26.10
2022-08-23T22:56:22.145Z,26.10
2022-08-23T22:58:49.841Z,26.10
2022-08-23T23:01:24.482Z,26.00
2022-08-23T23:03:51.961Z,26.00
2022-08-23T23:06:19.538Z,25.90
2022-08-23T23:08:46.191Z,25.80
2022-08-23T23:11:14.708Z,25.80
2022-08-23T23:13:41.470Z,25.80
2022-08-23T23:16:09.316Z,25.70
2022-08-23T23:18:36.638Z,25.60
2022-08-23T23:21:04.605Z,25.60
2022-08-23T23:23:31.970Z,25.70
2022-08-23T23:25:58.645Z,25.60
2022-08-23T23:28:25.391Z,25.60
2022-08-23T23:30:52.818Z,25.60
2022-08-23T23:33:20.708Z,25.60
2022-08-23T23:35:48.416Z,25.60
2022-08-23T23:38:15.153Z,25.50
2022-08-23T23:40:41.910Z,25.50
2022-08-23T23:43:11.219Z,25.40
2022-08-23T23:45:40.258Z,25.40
2022-08-23T23:48:08.686Z,25.40
2022-08-23T23:50:36.695Z,25.30
2022-08-23T23:53:04.424Z,25.30
2022-08-23T23:55:31.175Z,25.30
2022-08-23T23:57:58.673Z,25.20
